Time;durP1;ratioP1;P1;durP2;ratioP2;P2;SDS_P1;SDS_P2;PMS_P1;PMS_P2;Temp;Humidity;BMP_temperature;BMP_pressure;BME280_temperature;BME280_humidity;BME280_pressure;Samples;Min_cycle;Max_cycle;Signal;HPM_P1;HPM_P2
2022/01/29 00:01:03;;;;;;;6.95;1.10;;;;;;;3.18;51.20;99533.88;4394146;32;20132;-86
2022/01/29 00:03:30;;;;;;;3.80;0.90;;;;;;;3.06;51.67;99537.50;4381465;32;20103;-88
2022/01/29 00:05:57;;;;;;;2.50;0.82;;;;;;;3.22;51.54;99522.53;4395123;32;20102;-89
2022/01/29 00:08:23;;;;;;;1.35;0.62;;;;;;;3.10;52.34;99541.78;4381560;32;20140;-89
2022/01/29 00:10:53;;;;;;;4.45;1.00;;;;;;;3.47;51.48;99534.34;4393771;32;20111;-86
2022/01/29 00:13:19;;;;;;;3.95;0.80;;;;;;;3.47;51.28;99536.09;4382080;32;20133;-92
2022/01/29 00:15:44;;;;;;;3.05;0.75;;;;;;;3.22;51.36;99541.63;4393836;32;20103;-88
2022/01/29 00:18:10;;;;;;;2.65;0.80;;;;;;;3.10;51.46;99541.78;4394890;32;20387;-88
2022/01/29 00:20:35;;;;;;;2.95;0.65;;;;;;;2.99;51.79;99536.69;4381106;32;20164;-90
2022/01/29 00:23:00;;;;;;;3.55;0.90;;;;;;;3.13;51.61;99544.34;4395390;32;20160;-90
2022/01/29 00:25:26;;;;;;;3.55;0.70;;;;;;;3.05;51.66;99531.44;4395039;32;20090;-90
2022/01/29 00:27:53;;;;;;;6.40;1.00;;;;;;;2.89;52.34;99535.06;4395222;32;20153;-86
2022/01/29 00:30:19;;;;;;;5.78;0.88;;;;;;;3.16;51.85;99518.25;4407587;32;20157;-88
2022/01/29 00:32:45;;;;;;;3.55;0.88;;;;;;;2.93;52.29;99526.34;4409608;32;20114;-89
2022/01/29 00:35:11;;;;;;;3.58;0.90;;;;;;;2.96;52.09;99518.53;4395828;32;20119;-89
2022/01/29 00:37:36;;;;;;;2.80;0.80;;;;;;;2.80;52.63;99530.84;4395870;32;20090;-89
2022/01/29 00:40:03;;;;;;;4.28;1.10;;;;;;;3.26;51.83;99538.09;4409525;32;20459;-89
2022/01/29 00:42:29;;;;;;;4.00;1.00;;;;;;;2.92;52.85;99548.06;4395674;32;20733;-90
2022/01/29 00:44:54;;;;;;;5.60;1.25;;;;;;;3.05;52.63;99548.78;4409570;32;20090;-89
2022/01/29 00:47:20;;;;;;;3.25;0.88;;;;;;;3.13;52.70;99555.62;4395627;32;20099;-90
2022/01/29 00:49:45;;;;;;;4.72;1.20;;;;;;;2.88;53.43;99568.06;4382734;32;20102;-88
2022/01/29 00:52:11;;;;;;;5.57;1.37;;;;;;;3.22;52.63;99559.00;4401185;32;20114;-85
2022/01/29 00:54:37;;;;;;;6.68;1.00;;;;;;;3.05;53.46;99551.37;4381334;32;20082;-85
2022/01/29 00:57:02;;;;;;;3.15;0.90;;;;;;;3.25;53.15;99564.16;4394539;32;20082;-85
2022/01/29 00:59:33;;;;;;;2.45;0.80;;;;;;;3.04;53.80;99560.94;4393716;32;20111;-88
2022/01/29 01:01:59;;;;;;;4.47;1.00;;;;;;;3.04;53.96;99550.53;4389233;32;20125;-87
2022/01/29 01:04:28;;;;;;;2.40;0.82;;;;;;;2.55;55.24;99567.53;4409872;32;20122;-87
2022/01/29 01:06:53;;;;;;;4.20;1.10;;;;;;;2.57;55.69;99564.91;4409954;32;20355;-87
2022/01/29 01:09:19;;;;;;;4.50;1.30;;;;;;;2.65;55.72;99562.25;4408576;32;20221;-86
2022/01/29 01:11:44;;;;;;;4.50;1.00;;;;;;;2.59;56.58;99555.34;4409815;32;20486;-86
2022/01/29 01:14:09;;;;;;;4.57;0.90;;;;;;;2.81;56.02;99571.59;4409700;32;20427;-87
2022/01/29 01:16:35;;;;;;;4.05;1.20;;;;;;;2.69;56.63;99572.59;4409795;32;20082;-87
2022/01/29 01:19:00;;;;;;;4.70;1.20;;;;;;;2.50;57.55;99576.25;4409758;32;20109;-88
2022/01/29 01:21:26;;;;;;;4.45;1.40;;;;;;;2.70;56.99;99578.62;4395706;32;20106;-88
2022/01/29 01:23:52;;;;;;;4.57;1.30;;;;;;;2.34;58.27;99585.91;4409598;32;20375;-88
2022/01/29 01:26:18;;;;;;;5.40;1.12;;;;;;;2.50;57.60;99584.91;4409766;32;20104;-87
2022/01/29 01:28:43;;;;;;;5.93;1.17;;;;;;;2.17;58.45;99578.25;4408549;32;20561;-86
2022/01/29 01:31:09;;;;;;;5.10;1.40;;;;;;;2.42;57.60;99594.50;4409817;32;20113;-87
2022/01/29 01:33:35;;;;;;;5.80;1.40;;;;;;;2.37;57.28;99591.06;4409708;32;20109;-87
2022/01/29 01:36:04;;;;;;;3.30;0.95;;;;;;;2.15;57.53;99586.06;4408545;32;20117;-87
2022/01/29 01:38:47;;;;;;;5.65;1.70;;;;;;;2.23;56.72;99592.94;4409686;32;20082;-87
2022/01/29 01:41:16;;;;;;;4.12;1.30;;;;;;;2.24;56.71;99594.66;4409827;32;20639;-86
2022/01/29 01:43:42;;;;;;;6.47;1.40;;;;;;;2.17;56.25;99592.09;4408455;32;20157;-87
2022/01/29 01:46:07;;;;;;;7.82;1.50;;;;;;;2.21;56.03;99602.50;4409599;32;20086;-88
2022/01/29 01:48:33;;;;;;;4.07;1.05;;;;;;;2.10;56.23;99587.81;4395629;32;20134;-87
2022/01/29 01:50:58;;;;;;;5.62;1.27;;;;;;;2.00;56.67;99600.91;4409661;32;20100;-87
2022/01/29 01:53:24;;;;;;;6.15;1.85;;;;;;;2.29;55.80;99593.75;4409192;32;20122;-87
2022/01/29 01:55:50;;;;;;;4.80;1.23;;;;;;;2.21;55.90;99584.28;4409575;32;20564;-87
2022/01/29 01:58:15;;;;;;;6.47;1.27;;;;;;;2.17;55.79;99579.09;4409699;32;20094;-87
2022/01/29 02:00:41;;;;;;;4.85;1.37;;;;;;;2.11;55.93;99579.16;4409810;32;20079;-86
2022/01/29 02:03:08;;;;;;;8.35;1.23;;;;;;;2.19;55.69;99570.44;4409836;32;20074;-88
2022/01/29 02:05:33;;;;;;;6.25;1.27;;;;;;;2.52;54.78;99587.50;4409760;32;20078;-86
2022/01/29 02:08:01;;;;;;;6.45;1.58;;;;;;;2.26;55.20;99559.09;4407369;32;20421;-88
2022/01/29 02:10:27;;;;;;;5.80;1.60;;;;;;;1.99;56.05;99561.06;4382111;32;20140;-87
2022/01/29 02:13:01;;;;;;;5.28;1.50;;;;;;;2.10;55.96;99563.56;4409249;32;20578;-88
2022/01/29 02:15:26;;;;;;;4.70;1.40;;;;;;;2.23;55.57;99544.41;4409770;32;20082;-88
2022/01/29 02:17:52;;;;;;;6.07;1.33;;;;;;;2.15;55.59;99539.28;4395872;32;20557;-88
2022/01/29 02:20:21;;;;;;;3.62;1.10;;;;;;;1.90;55.88;99519.56;4383072;32;20122;-88
2022/01/29 02:22:47;;;;;;;5.37;1.37;;;;;;;2.24;55.08;99558.25;4409359;32;20090;-87
2022/01/29 02:25:41;;;;;;;5.03;1.10;;;;;;;2.36;54.55;99551.22;4395619;32;20117;-87
2022/01/29 02:28:17;;;;;;;5.30;1.10;;;;;;;2.24;54.45;99560.84;4395524;32;20098;-87
2022/01/29 02:30:45;;;;;;;6.37;1.40;;;;;;;2.30;54.08;99545.22;4395684;32;20532;-87
2022/01/29 02:33:12;;;;;;;5.78;1.20;;;;;;;2.11;54.49;99549.72;4409249;32;20113;-87
2022/01/29 02:35:43;;;;;;;4.78;1.15;;;;;;;2.09;54.36;99557.53;4409336;32;20157;-87
2022/01/29 02:38:10;;;;;;;6.15;1.15;;;;;;;2.40;53.61;99559.00;4395322;32;20117;-88
2022/01/29 02:40:43;;;;;;;5.55;1.10;;;;;;;2.40;53.39;99593.66;4395477;32;20102;-88
2022/01/29 02:43:32;;;;;;;8.27;1.73;;;;;;;2.22;53.89;99575.59;4409238;32;20137;-88
2022/01/29 02:46:04;;;;;;;6.43;1.47;;;;;;;2.39;53.42;99586.72;4395666;32;20087;-87
2022/01/29 02:48:30;;;;;;;5.97;1.20;;;;;;;2.35;53.16;99587.63;4409156;32;20081;-87
2022/01/29 02:50:55;;;;;;;5.00;1.15;;;;;;;2.40;52.80;99575.47;4409002;32;20488;-88
2022/01/29 02:53:21;;;;;;;4.75;0.98;;;;;;;2.44;52.32;99565.91;4408984;32;20402;-88
2022/01/29 02:55:47;;;;;;;2.83;0.90;;;;;;;2.01;53.03;99566.22;4408884;32;20446;-88
2022/01/29 02:58:12;;;;;;;6.85;1.85;;;;;;;2.00;52.89;99582.72;4409066;32;20094;-88
2022/01/29 03:00:37;;;;;;;5.22;1.20;;;;;;;2.22;52.46;99586.00;4409241;32;20110;-87
2022/01/29 03:03:03;;;;;;;7.37;1.45;;;;;;;2.66;51.45;99593.41;4409032;32;20082;-88
2022/01/29 03:05:29;;;;;;;7.15;1.20;;;;;;;2.63;51.46;99593.47;4408805;32;20132;-88
2022/01/29 03:07:54;;;;;;;6.07;1.33;;;;;;;2.61;51.45;99579.59;4408837;32;20176;-87
2022/01/29 03:10:23;;;;;;;3.42;1.02;;;;;;;2.56;51.10;99594.38;4395050;32;20128;-87
2022/01/29 03:12:48;;;;;;;6.85;1.40;;;;;;;2.61;50.95;99612.53;4408746;32;20627;-88
2022/01/29 03:15:14;;;;;;;4.37;0.98;;;;;;;2.47;51.06;99605.75;4408704;32;20191;-87
2022/01/29 03:17:39;;;;;;;4.18;1.10;;;;;;;2.47;51.09;99605.75;4408669;32;20160;-88
2022/01/29 03:20:06;;;;;;;3.42;1.10;;;;;;;2.27;51.28;99629.28;4408632;32;20102;-87
2022/01/29 03:22:31;;;;;;;3.83;1.00;;;;;;;2.65;50.11;99615.13;4408636;32;20103;-88
2022/01/29 03:24:56;;;;;;;5.43;1.10;;;;;;;2.52;50.46;99611.75;4395684;32;20359;-87
2022/01/29 03:27:22;;;;;;;8.10;1.40;;;;;;;2.56;50.35;99605.66;4410544;32;20120;-88
2022/01/29 03:29:48;;;;;;;5.68;1.20;;;;;;;2.64;50.57;99615.13;4410482;32;20478;-88
2022/01/29 03:32:13;;;;;;;6.57;1.27;;;;;;;2.50;50.90;99610.91;4396844;32;20086;-88
2022/01/29 03:34:39;;;;;;;6.97;1.20;;;;;;;2.69;50.24;99613.34;4410539;32;20124;-88
2022/01/29 03:37:05;;;;;;;6.12;1.30;;;;;;;2.14;51.24;99614.66;4410495;32;20125;-88
2022/01/29 03:39:33;;;;;;;8.13;1.25;;;;;;;2.34;50.82;99599.78;4410569;32;20116;-86
2022/01/29 03:42:03;;;;;;;;;;;;;;;2.26;50.84;99601.59;4397420;32;20137;-87
2022/01/29 03:44:29;;;;;;;4.37;1.12;;;;;;;2.37;50.28;99601.47;4410605;32;19984;-88
2022/01/29 03:46:54;;;;;;;7.25;2.00;;;;;;;2.32;50.05;99591.13;4396720;32;20493;-88
2022/01/29 03:49:19;;;;;;;4.95;1.30;;;;;;;2.60;49.43;99609.09;4410422;32;20112;-88
2022/01/29 03:51:48;;;;;;;4.85;1.08;;;;;;;2.49;49.60;99608.31;4410445;32;20414;-88
2022/01/29 03:54:13;;;;;;;8.45;1.48;;;;;;;2.62;49.32;99607.31;4410464;32;20078;-88
2022/01/29 03:56:39;;;;;;;4.35;1.08;;;;;;;2.60;48.99;99601.28;4410261;32;20123;-87
2022/01/29 03:59:04;;;;;;;5.90;1.25;;;;;;;2.47;48.93;99613.56;4396813;32;20481;-88
2022/01/29 04:01:30;;;;;;;4.45;1.00;;;;;;;2.66;48.54;99621.19;4410490;32;20458;-88
2022/01/29 04:03:55;;;;;;;3.62;0.95;;;;;;;2.64;48.56;99629.00;4410280;32;20086;-88
2022/01/29 04:06:21;;;;;;;3.03;0.88;;;;;;;2.69;48.42;99640.22;4410340;32;20468;-88
2022/01/29 04:08:46;;;;;;;8.05;1.30;;;;;;;2.87;47.74;99627.91;4396638;32;20397;-88
2022/01/29 04:11:14;;;;;;;5.80;1.02;;;;;;;2.87;47.71;99633.13;4410219;32;20095;-88
2022/01/29 04:13:48;;;;;;;4.05;0.73;;;;;;;3.07;47.28;99625.09;4396891;32;20429;-88
2022/01/29 04:16:15;;;;;;;2.95;0.90;;;;;;;2.94;47.09;99619.19;4410518;32;20443;-88
2022/01/29 04:18:41;;;;;;;5.45;1.15;;;;;;;2.75;47.38;99619.34;4410607;32;20102;-88
2022/01/29 04:21:07;;;;;;;6.47;1.10;;;;;;;2.96;47.00;99622.63;4410514;32;20112;-88
2022/01/29 04:23:35;;;;;;;6.68;1.30;;;;;;;3.09;46.63;99631.16;4410670;32;20082;-89
2022/01/29 04:26:02;;;;;;;2.62;0.60;;;;;;;3.10;46.37;99635.50;4396785;32;20133;-89
2022/01/29 04:28:35;;;;;;;6.40;0.90;;;;;;;2.94;46.82;99646.06;4410505;32;20098;-89
2022/01/29 04:31:07;;;;;;;5.20;1.08;;;;;;;2.93;46.97;99648.69;4410516;32;20147;-89
2022/01/29 04:33:32;;;;;;;5.55;1.20;;;;;;;3.25;46.44;99637.94;4410550;32;20078;-88
2022/01/29 04:36:00;;;;;;;5.60;1.05;;;;;;;3.51;45.77;99635.00;4410011;32;20119;-88
2022/01/29 04:38:27;;;;;;;4.82;1.12;;;;;;;3.21;46.28;99636.25;4410235;32;20153;-89
2022/01/29 04:40:53;;;;;;;5.60;1.10;;;;;;;3.44;45.87;99641.19;4410141;32;20374;-88
2022/01/29 04:43:19;;;;;;;8.40;1.90;;;;;;;2.97;46.64;99662.53;4396231;32;20138;-88
2022/01/29 04:45:45;;;;;;;3.62;1.00;;;;;;;3.33;46.05;99643.06;4396424;32;20102;-87
2022/01/29 04:48:10;;;;;;;4.97;1.30;;;;;;;3.47;45.70;99641.13;4410060;32;20112;-87
2022/01/29 04:50:36;;;;;;;4.62;1.30;;;;;;;3.64;45.32;99642.69;4396201;32;20143;-88
2022/01/29 04:53:02;;;;;;;5.43;1.02;;;;;;;3.74;45.25;99646.88;4383849;32;20078;-85
2022/01/29 04:55:27;;;;;;;8.05;1.37;;;;;;;3.80;44.99;99643.34;4396383;32;20179;-84
2022/01/29 04:57:53;;;;;;;5.12;1.12;;;;;;;3.71;45.28;99649.56;4409877;32;20110;-81
2022/01/29 05:00:21;;;;;;;5.43;1.12;;;;;;;3.87;45.24;99648.47;4410162;32;20087;-85
2022/01/29 05:02:52;;;;;;;5.55;1.08;;;;;;;3.86;44.99;99641.53;4410056;32;20090;-84
2022/01/29 05:05:18;;;;;;;3.45;1.00;;;;;;;3.79;44.66;99645.09;4396192;32;20098;-88
2022/01/29 05:07:43;;;;;;;7.40;1.60;;;;;;;3.94;44.19;99644.03;4410101;32;20512;-88
2022/01/29 05:10:09;;;;;;;5.90;1.20;;;;;;;4.02;44.06;99651.72;4409959;32;20094;-85
2022/01/29 05:12:45;;;;;;;5.78;1.27;;;;;;;4.01;43.88;99650.00;4396358;32;20429;-85
2022/01/29 05:15:24;;;;;;;9.85;2.03;;;;;;;4.08;43.78;99649.06;4398199;32;20093;-92
2022/01/29 05:28:46;;;;;;;7.50;1.30;;;;;;;4.02;44.00;99652.59;4410416;32;20123;-88
2022/01/29 05:31:11;;;;;;;6.35;1.25;;;;;;;4.18;43.70;99663.69;4409993;32;20082;-87
2022/01/29 05:33:37;;;;;;;8.60;1.77;;;;;;;4.10;43.68;99668.16;4410041;32;20105;-87
2022/01/29 05:36:02;;;;;;;8.43;1.60;;;;;;;4.22;43.60;99667.97;4409782;32;20149;-86
2022/01/29 05:38:28;;;;;;;5.80;1.10;;;;;;;4.32;43.47;99664.31;4396039;32;20401;-88
2022/01/29 05:40:54;;;;;;;5.70;1.30;;;;;;;4.31;43.44;99661.75;4409857;32;20086;-88
2022/01/29 05:43:20;;;;;;;5.82;1.17;;;;;;;4.22;43.65;99664.50;4409743;32;20151;-88
2022/01/29 05:45:45;;;;;;;5.70;1.60;;;;;;;4.30;43.39;99662.62;4409745;32;20398;-88
2022/01/29 05:48:11;;;;;;;6.40;1.33;;;;;;;4.00;43.95;99658.69;4408986;32;20135;-88
2022/01/29 05:50:36;;;;;;;6.62;1.42;;;;;;;4.09;43.63;99650.75;4409619;32;20082;-87
2022/01/29 05:53:02;;;;;;;5.72;1.40;;;;;;;4.19;43.54;99661.91;4409648;32;20414;-87
2022/01/29 05:55:27;;;;;;;5.32;1.10;;;;;;;4.10;43.78;99661.19;4395881;32;20493;-88
2022/01/29 05:57:53;;;;;;;4.45;1.12;;;;;;;4.18;43.71;99657.59;4395642;32;20106;-88
2022/01/29 06:00:18;;;;;;;7.03;1.52;;;;;;;4.12;43.91;99659.41;4409690;32;20447;-87
2022/01/29 06:02:44;;;;;;;6.90;1.50;;;;;;;4.22;43.71;99656.66;4395888;32;20098;-86
2022/01/29 06:05:09;;;;;;;5.47;1.15;;;;;;;4.26;43.68;99659.19;4409640;32;20107;-88
2022/01/29 06:07:34;;;;;;;6.20;1.20;;;;;;;4.17;44.12;99668.91;4409603;32;20113;-87
2022/01/29 06:10:00;;;;;;;6.00;1.62;;;;;;;4.09;44.45;99672.47;4409303;32;20086;-88
2022/01/29 06:12:25;;;;;;;8.55;1.85;;;;;;;4.11;45.12;99681.16;4395725;32;20439;-88
2022/01/29 06:14:51;;;;;;;8.07;1.58;;;;;;;4.09;45.46;99675.09;4409445;32;20386;-87
2022/01/29 06:17:17;;;;;;;4.75;1.42;;;;;;;3.94;46.22;99683.16;4409301;32;20106;-88
2022/01/29 06:19:42;;;;;;;7.72;1.50;;;;;;;3.85;46.53;99683.25;4409373;32;20134;-87
2022/01/29 06:22:11;;;;;;;8.77;1.92;;;;;;;3.80;46.62;99683.28;4395570;32;20121;-87
2022/01/29 06:24:37;;;;;;;6.85;1.58;;;;;;;4.01;46.27;99683.91;4409269;32;20106;-86
2022/01/29 06:27:02;;;;;;;10.60;2.33;;;;;;;4.14;46.01;99690.69;4409306;32;20102;-86
2022/01/29 06:29:28;;;;;;;7.28;1.55;;;;;;;4.01;46.26;99682.16;4395322;32;20375;-84
2022/01/29 06:31:53;;;;;;;6.90;1.40;;;;;;;4.00;46.48;99677.84;4395517;32;20125;-86
2022/01/29 06:34:19;;;;;;;8.30;1.77;;;;;;;4.00;46.28;99675.22;4409204;32;20133;-85
2022/01/29 06:36:44;;;;;;;8.80;1.90;;;;;;;4.21;45.95;99673.19;4409218;32;20156;-86
2022/01/29 06:39:09;;;;;;;8.63;1.65;;;;;;;4.01;46.17;99681.31;4409121;32;20432;-85
2022/01/29 06:41:35;;;;;;;7.93;1.83;;;;;;;3.94;46.29;99683.16;4409163;32;20160;-85
2022/01/29 06:44:00;;;;;;;9.95;2.15;;;;;;;4.21;45.97;99681.00;4409015;32;20117;-86
2022/01/29 06:46:26;;;;;;;6.50;1.70;;;;;;;4.48;45.22;99684.97;4409291;32;20093;-85
2022/01/29 06:48:52;;;;;;;9.98;2.10;;;;;;;4.37;45.54;99684.28;4409294;32;20327;-85
2022/01/29 06:51:18;;;;;;;5.95;1.50;;;;;;;4.63;45.20;99683.88;4408894;32;20090;-85
2022/01/29 06:53:43;;;;;;;5.80;1.40;;;;;;;4.81;44.68;99678.34;4409109;32;20129;-86
2022/01/29 06:56:09;;;;;;;6.35;1.30;;;;;;;4.87;44.58;99674.78;4394927;32;20124;-86
2022/01/29 06:58:37;;;;;;;8.35;1.80;;;;;;;4.96;44.39;99684.19;4395076;32;20221;-85
2022/01/29 07:01:03;;;;;;;6.97;1.70;;;;;;;5.12;44.10;99694.34;4410618;32;20128;-86
2022/01/29 07:03:28;;;;;;;7.78;1.55;;;;;;;5.23;43.80;99685.44;4396881;32;20098;-85
2022/01/29 07:05:54;;;;;;;8.00;1.70;;;;;;;5.34;43.13;99680.87;4410691;32;20120;-86
2022/01/29 07:08:19;;;;;;;6.55;1.70;;;;;;;5.40;43.15;99691.22;4410733;32;20117;-85
2022/01/29 07:10:46;;;;;;;6.03;1.30;;;;;;;5.55;42.74;99684.84;4396837;32;20493;-85
2022/01/29 07:13:12;;;;;;;7.22;1.50;;;;;;;5.64;41.33;99691.62;4397294;32;20098;-85
2022/01/29 07:15:38;;;;;;;6.93;1.67;;;;;;;5.63;41.35;99687.31;4410779;32;20124;-85
2022/01/29 07:18:03;;;;;;;7.30;1.70;;;;;;;5.93;41.04;99682.31;4397129;32;20101;-86
2022/01/29 07:20:29;;;;;;;6.37;1.50;;;;;;;5.70;40.96;99692.38;4397021;32;20106;-86
2022/01/29 07:22:54;;;;;;;8.25;1.95;;;;;;;5.58;40.86;99697.88;4410988;32;20368;-88
2022/01/29 07:25:19;;;;;;;8.20;2.17;;;;;;;5.74;40.39;99693.19;4410822;32;20124;-88
2022/01/29 07:27:45;;;;;;;12.10;2.42;;;;;;;5.69;40.62;99690.63;4397076;32;20102;-88
2022/01/29 07:30:16;;;;;;;6.87;1.58;;;;;;;5.29;41.35;99690.56;4410332;32;20086;-87
2022/01/29 07:32:45;;;;;;;9.20;1.95;;;;;;;5.52;41.08;99682.28;4410484;32;20109;-88
2022/01/29 07:35:11;;;;;;;7.35;1.80;;;;;;;5.84;40.78;99686.00;4410652;32;20105;-88
2022/01/29 07:37:37;;;;;;;8.70;1.90;;;;;;;5.97;40.78;99695.34;4396789;32;20124;-87
2022/01/29 07:40:03;;;;;;;9.07;2.05;;;;;;;5.99;40.74;99692.69;4396767;32;20095;-88
2022/01/29 07:42:28;;;;;;;8.32;1.50;;;;;;;6.07;40.65;99702.09;4396865;32;20126;-87
2022/01/29 07:44:54;;;;;;;10.10;2.00;;;;;;;5.69;41.25;99695.03;4410488;32;20117;-88
2022/01/29 07:47:19;;;;;;;8.48;2.00;;;;;;;5.78;41.32;99709.69;4410528;32;20102;-87
2022/01/29 07:49:44;;;;;;;6.82;1.92;;;;;;;5.83;41.92;99705.19;4410202;32;20150;-87
2022/01/29 07:52:13;;;;;;;6.60;1.60;;;;;;;5.75;41.92;99699.25;4410339;32;20122;-87
2022/01/29 07:54:38;;;;;;;10.48;1.87;;;;;;;5.79;42.29;99693.94;4396694;32;20114;-88
2022/01/29 07:57:04;;;;;;;8.30;2.00;;;;;;;5.89;41.88;99698.09;4410148;32;20410;-85
2022/01/29 07:59:30;;;;;;;8.90;1.70;;;;;;;6.08;41.44;99693.38;4410362;32;20078;-85
2022/01/29 08:01:55;;;;;;;7.43;1.62;;;;;;;6.29;41.19;99694.63;4410460;32;20538;-86
2022/01/29 08:04:23;;;;;;;8.93;1.80;;;;;;;6.35;41.03;99680.53;4410343;32;20505;-86
2022/01/29 08:06:51;;;;;;;8.02;1.75;;;;;;;6.27;41.12;99679.88;4410398;32;20212;-86
2022/01/29 08:09:19;;;;;;;7.28;1.58;;;;;;;6.45;40.42;99675.97;4410062;32;20090;-85
2022/01/29 08:11:44;;;;;;;9.68;1.67;;;;;;;6.44;40.33;99676.88;4409986;32;20141;-86
2022/01/29 08:14:10;;;;;;;7.00;1.50;;;;;;;6.44;39.86;99682.97;4410487;32;20117;-88
2022/01/29 08:16:35;;;;;;;8.98;1.92;;;;;;;6.23;40.11;99681.69;4410321;32;20114;-86
2022/01/29 08:19:01;;;;;;;8.25;1.73;;;;;;;6.11;40.03;99674.13;4410580;32;20094;-86
2022/01/29 08:21:26;;;;;;;8.10;1.85;;;;;;;6.15;40.13;99677.53;4410434;32;20348;-88
2022/01/29 08:23:51;;;;;;;6.05;1.60;;;;;;;6.16;39.72;99681.84;4410180;32;20106;-86
2022/01/29 08:26:17;;;;;;;6.28;1.23;;;;;;;6.33;39.68;99677.09;4396595;32;20094;-86
2022/01/29 08:28:42;;;;;;;10.02;1.67;;;;;;;6.27;38.92;99685.94;4410261;32;20107;-86
2022/01/29 08:31:08;;;;;;;8.32;2.20;;;;;;;6.16;39.13;99690.59;4410382;32;20148;-86
2022/01/29 08:33:33;;;;;;;7.18;1.40;;;;;;;6.40;38.62;99685.69;4410526;32;20123;-86
2022/01/29 08:35:59;;;;;;;7.65;1.50;;;;;;;6.51;38.87;99694.16;4410407;32;20114;-86
2022/01/29 08:38:25;;;;;;;9.27;2.20;;;;;;;6.55;38.24;99693.19;4384028;32;20629;-87
2022/01/29 08:40:52;;;;;;;10.85;1.62;;;;;;;6.67;37.59;99692.03;4396561;32;20387;-86
2022/01/29 08:43:18;;;;;;;10.85;1.85;;;;;;;6.51;37.86;99699.41;4410280;32;20106;-86
2022/01/29 08:45:43;;;;;;;7.87;1.60;;;;;;;6.64;37.70;99710.41;4410074;32;20090;-86
2022/01/29 08:48:08;;;;;;;7.57;1.40;;;;;;;6.76;37.30;99702.28;4410034;32;20090;-86
2022/01/29 08:50:34;;;;;;;9.07;1.60;;;;;;;6.85;37.41;99709.03;4396284;32;20106;-86
2022/01/29 08:52:59;;;;;;;8.07;1.60;;;;;;;6.94;37.33;99703.59;4410153;32;20126;-86
2022/01/29 08:55:25;;;;;;;8.25;1.80;;;;;;;6.96;37.75;99714.88;4410036;32;20125;-87
2022/01/29 08:57:50;;;;;;;8.50;1.55;;;;;;;6.76;38.18;99715.38;4409820;32;20086;-86
2022/01/29 09:00:17;;;;;;;9.68;1.87;;;;;;;6.79;38.38;99715.28;4409989;32;20453;-86
2022/01/29 09:02:42;;;;;;;10.23;2.20;;;;;;;6.93;38.05;99719.34;4410330;32;20165;-86
2022/01/29 09:05:10;;;;;;;7.87;1.75;;;;;;;6.69;38.38;99725.13;4410230;32;20491;-86
2022/01/29 09:07:35;;;;;;;7.70;1.83;;;;;;;6.90;37.94;99720.28;4410165;32;20157;-86
2022/01/29 09:10:01;;;;;;;7.62;1.60;;;;;;;6.42;38.75;99723.16;4410194;32;20144;-86
2022/01/29 09:12:26;;;;;;;7.30;1.50;;;;;;;6.45;38.79;99725.69;4418639;32;20097;-85
2022/01/29 09:14:52;;;;;;;7.28;1.60;;;;;;;6.12;39.16;99732.53;4424502;32;20262;-85
2022/01/29 09:17:17;;;;;;;7.00;1.48;;;;;;;6.35;38.58;99730.28;4420202;32;20430;-85
2022/01/29 09:19:42;;;;;;;5.90;1.30;;;;;;;6.08;38.96;99743.09;4409890;32;20094;-86
2022/01/29 09:22:08;;;;;;;8.35;1.70;;;;;;;6.38;38.22;99730.22;4409190;32;20078;-86
2022/01/29 09:24:33;;;;;;;7.25;1.52;;;;;;;6.65;38.02;99730.47;4409847;32;20402;-86
2022/01/29 09:26:59;;;;;;;7.18;1.65;;;;;;;6.68;37.54;99726.03;4409746;32;20378;-86
2022/01/29 09:29:24;;;;;;;7.90;1.55;;;;;;;6.92;37.41;99715.00;4409364;32;20187;-86
2022/01/29 09:31:50;;;;;;;6.95;1.40;;;;;;;6.83;37.25;99718.69;4395967;32;20141;-85
2022/01/29 09:34:15;;;;;;;8.82;1.70;;;;;;;6.38;37.81;99709.28;4395933;32;20151;-85
2022/01/29 09:36:40;;;;;;;8.57;1.65;;;;;;;6.43;37.84;99719.63;4409634;32;20062;-85
2022/01/29 09:39:06;;;;;;;9.52;1.55;;;;;;;6.59;37.78;99717.53;4409685;32;20117;-85
2022/01/29 09:41:32;;;;;;;8.82;1.65;;;;;;;6.88;37.41;99712.47;4409705;32;20117;-86
2022/01/29 09:43:57;;;;;;;7.40;1.58;;;;;;;6.87;37.23;99715.97;4395911;32;20134;-86
2022/01/29 09:46:26;;;;;;;9.02;2.08;;;;;;;7.14;36.93;99700.44;4409653;32;20113;-84
2022/01/29 09:48:53;;;;;;;8.65;1.60;;;;;;;7.32;36.80;99698.25;4409611;32;20125;-86
2022/01/29 09:51:19;;;;;;;7.43;1.60;;;;;;;7.33;36.83;99695.59;4409581;32;20112;-85
2022/01/29 09:53:45;;;;;;;7.90;1.70;;;;;;;7.31;36.64;99683.44;4409623;32;20118;-85
2022/01/29 09:56:11;;;;;;;7.87;1.73;;;;;;;7.69;36.23;99674.50;4395907;32;20117;-87
2022/01/29 09:58:37;;;;;;;7.90;1.40;;;;;;;7.64;35.88;99676.41;4409369;32;20129;-86
2022/01/29 10:01:03;;;;;;;5.68;1.73;;;;;;;7.89;35.06;99676.53;4409164;32;20168;-86
2022/01/29 10:03:29;;;;;;;7.18;1.40;;;;;;;7.87;35.09;99671.34;4395600;32;20090;-86
2022/01/29 10:05:57;;;;;;;6.72;1.50;;;;;;;7.61;35.03;99681.72;4409278;32;20087;-83
2022/01/29 10:08:23;;;;;;;11.25;1.60;;;;;;;7.56;35.30;99663.50;4408625;32;20098;-84
2022/01/29 10:10:51;;;;;;;6.53;1.40;;;;;;;7.35;35.88;99661.47;4395098;32;20162;-83
2022/01/29 10:13:36;;;;;;;7.87;1.60;;;;;;;8.01;35.21;99655.19;4409511;32;20141;-84
2022/01/29 10:16:12;;;;;;;9.52;1.37;;;;;;;8.35;34.71;99641.03;4409296;32;20086;-84
2022/01/29 10:18:39;;;;;;;10.98;1.65;;;;;;;8.23;35.26;99649.31;4395674;32;20118;-84
2022/01/29 10:21:20;;;;;;;9.75;1.50;;;;;;;8.20;35.48;99644.97;4409696;32;20450;-84
2022/01/29 10:23:46;;;;;;;9.32;1.85;;;;;;;8.48;35.51;99644.16;4409372;32;20082;-85
2022/01/29 10:26:38;;;;;;;9.65;2.10;;;;;;;8.46;35.81;99636.31;4395458;32;20144;-84
2022/01/29 10:29:06;;;;;;;11.75;2.20;;;;;;;8.59;35.82;99641.16;4395477;32;20246;-84
2022/01/29 10:31:52;;;;;;;11.80;2.12;;;;;;;8.66;36.41;99632.19;4395338;32;20105;-85
2022/01/29 10:34:29;;;;;;;11.20;1.98;;;;;;;8.60;36.86;99630.63;4408690;32;20105;-83
2022/01/29 10:37:13;;;;;;;12.75;2.15;;;;;;;8.80;36.90;99632.56;4409027;32;20104;-84
2022/01/29 10:39:43;;;;;;;10.57;2.15;;;;;;;8.69;37.28;99632.06;4409199;32;20098;-84
2022/01/29 10:42:18;;;;;;;8.50;2.33;;;;;;;8.87;37.31;99632.38;4382577;32;20469;-85
2022/01/29 10:44:48;;;;;;;8.73;1.98;;;;;;;8.82;37.90;99625.50;4408851;32;20150;-85
2022/01/29 10:47:14;;;;;;;8.88;2.15;;;;;;;8.81;38.24;99623.78;4409043;32;20408;-85
2022/01/29 10:49:50;;;;;;;10.88;2.45;;;;;;;8.62;38.64;99622.69;4409151;32;20106;-83
2022/01/29 10:52:17;;;;;;;10.60;1.95;;;;;;;8.82;38.44;99622.88;4409314;32;20094;-84
2022/01/29 10:54:44;;;;;;;9.23;2.00;;;;;;;8.98;38.27;99619.72;4395415;32;20132;-83
2022/01/29 10:57:11;;;;;;;10.93;1.97;;;;;;;8.74;38.68;99621.44;4408884;32;20550;-84
2022/01/29 10:59:45;;;;;;;9.70;1.97;;;;;;;8.60;39.10;99622.75;4395308;32;20282;-84
2022/01/29 11:02:11;;;;;;;10.15;2.40;;;;;;;8.40;39.68;99619.87;4395506;32;20295;-85
2022/01/29 11:04:38;;;;;;;10.25;1.90;;;;;;;8.47;39.51;99610.91;4395272;32;20434;-85
2022/01/29 11:07:09;;;;;;;12.30;2.35;;;;;;;8.26;39.89;99609.81;4394732;32;20108;-85
2022/01/29 11:09:35;;;;;;;11.18;2.47;;;;;;;8.25;39.94;99603.72;4408672;32;20445;-85
2022/01/29 11:12:03;;;;;;;13.75;2.87;;;;;;;8.32;39.92;99611.38;4408661;32;20122;-84
2022/01/29 11:14:30;;;;;;;11.95;2.60;;;;;;;8.53;39.69;99610.72;4408575;32;20409;-84
2022/01/29 11:16:56;;;;;;;12.00;2.40;;;;;;;8.43;39.90;99604.91;4408467;32;20420;-83
2022/01/29 11:19:21;;;;;;;12.98;2.47;;;;;;;8.57;39.71;99606.22;4408612;32;20090;-86
2022/01/29 11:21:51;;;;;;;11.63;2.55;;;;;;;8.27;40.29;99603.66;4394918;32;20455;-85
2022/01/29 11:24:23;;;;;;;10.02;2.30;;;;;;;8.33;40.59;99597.37;4394699;32;20117;-85
2022/01/29 11:26:49;;;;;;;12.63;3.10;;;;;;;8.27;40.74;99590.53;4394625;32;20146;-85
2022/01/29 11:29:35;;;;;;;13.62;2.80;;;;;;;8.30;40.89;99587.81;4408487;32;20113;-83
2022/01/29 11:32:23;;;;;;;15.40;2.70;;;;;;;8.37;40.85;99581.44;4394797;32;20136;-85
2022/01/29 11:35:10;;;;;;;14.73;3.12;;;;;;;8.26;41.14;99575.69;4394626;32;20098;-84
2022/01/29 11:37:37;;;;;;;13.80;2.55;;;;;;;8.65;40.42;99568.31;4407913;32;20120;-85
2022/01/29 11:40:19;;;;;;;14.75;2.78;;;;;;;8.82;40.13;99565.06;4408345;32;20377;-84
2022/01/29 11:43:00;;;;;;;11.40;3.33;;;;;;;8.83;40.35;99561.53;4408397;32;20094;-84
2022/01/29 11:45:46;;;;;;;14.35;3.40;;;;;;;8.90;40.54;99556.91;4408743;32;20094;-85
2022/01/29 11:48:31;;;;;;;16.60;2.95;;;;;;;8.81;40.60;99555.47;4410502;32;20086;-84
2022/01/29 11:51:01;;;;;;;12.60;2.45;;;;;;;8.87;40.70;99564.94;4410240;32;20525;-84
2022/01/29 11:53:49;;;;;;;16.95;3.70;;;;;;;8.82;40.87;99556.34;4410347;32;20164;-86